Huvudsida
METAR-TAF:

METAR-TAF

Flygplatser :

Jazīreh-ye Lāvān, Iran

latitud: 26-48-37N, longitud: 53-21-22E, höjd: 23 m

Aktuellt väderrapport

Denna rapport gjordes för 5 timmar och 38 minuter sedan, klockan 15:00 UTC
Vind 19 kt från väst/nordväst
Temperatur 22°C
Fuktighet 46%
Tryck 1015 hPa
Sikt 10 km eller mer
Inga moln under 1 500 m eller inga cumulonimbus

METAR: OIBV 261500Z 30019KT CAVOK 22/10 Q1015

Tid: 00:08 (20:38 UTC)


TAF: saknas

Aktuella väderrapporter och prognoser från 4000 flygplatser (METAR- och TAF-rapporter).

De tillgängliga stationerna syns som gula och röda prickar på kartan.

För musen över prickarna för att se namnen på stationerna.

Klicka sedan för att få väderrapporter och prognoser.

För att ändra kartan: Klicka på de gröna knapparna med ett svart kors på för att zooma in; den gröna knappen med ett streck på för att zooma ut; eller på de gröna pilarna för angränsande kartor.


METAR-TAF: